CheckWX is a tool to help pilots better visualize weather data.  It is not intended as a substitute for an official pre-flight weather briefing.

02:51:51 UTC

KLAR TAF
Laramie Regional Airport
Laramie, Wyoming, USA
KLAR 222320Z 2300/2324 27012G18KT P6SM SKC FM230200 21008KT P6SM SKC FM231700 25012G18KT P6SM SKC

Sep-23@
00:00 UTC

Sep-23 @ 00:00 UTC

Sep-23@
02:00 UTC

Sep-23 @ 02:00 UTC

KLAR 222320Z 2300/2324 27012G18KT P6SM SKC

Expired

Wind
  • 270° at 12 KTS
  • {Gusting to 18 KTS
Cloud Levels
  • Clear skies

Sep-23@
02:00 UTC

Sep-23 @ 02:00 UTC

Sep-23@
17:00 UTC

Sep-23 @ 17:00 UTC

FM230200 21008KT P6SM SKC

From

From Standard forecast or significant change

Wind
  • 210° at 8 KTS
Cloud Levels
  • Clear skies

Sep-23@
17:00 UTC

Sep-23 @ 17:00 UTC

Sep-24@
00:00 UTC

Sep-24 @ 00:00 UTC

FM231700 25012G18KT P6SM SKC

From

From Standard forecast or significant change

Wind
  • 250° at 12 KTS
  • {Gusting to 18 KTS
Cloud Levels
  • Clear skies